Portada
METAR-TAF:

METAR-TAF

Aeropuertos :

Siros, Grecia

latitud: 37-25-16N, longitud: 024-56-54E, altitud: 73 m

Observación

El informe se hizo hace 49 minutos, a las 01:20 UTC
Viento 2 kt con dirección variable
Temperatura 28°C
Humedad 51%
Presión 1007 hPa

METAR: LGSO 230120Z AUTO VRB02KT //// // ////// 28/17 Q1007 RE//

Hora: 05:09 (02:09 UTC)


TAF: falta

Observaciones y pronósticos meteorológicos de más de 4000 aeropuertos (mensajes METAR y TAF).

Los puntos amarillos y rojos representan las estaciones disponibles.

Ponga el ratón en el punto deseado para ver el nombre de la estación.

Haga clic para ver las observaciones y los pronósticos meteorológicos.

Para cambiar el mapa : haga clic en los botones verdes con una cruz de color negro para hacer un zoom, en el botón verde con un guión para alejar o en las flechas verdes para mapas adyacentes.


METAR-TAF: